createdAt,value
2019-04-11T00:00:17.835Z,99560.65
2019-04-11T00:02:47.017Z,99565.31
2019-04-11T00:05:16.846Z,99565.52
2019-04-11T00:07:45.351Z,99572.33
2019-04-11T00:10:14.473Z,99576.50
2019-04-11T00:12:43.002Z,99571.63
2019-04-11T00:15:12.633Z,99575.28
2019-04-11T00:17:41.845Z,99577.27
2019-04-11T00:20:10.328Z,99576.65
2019-04-11T00:22:38.748Z,99574.34
2019-04-11T00:25:07.393Z,99583.30
2019-04-11T00:27:35.788Z,99583.50
2019-04-11T00:30:06.723Z,99584.18
2019-04-11T00:32:35.890Z,99580.55
2019-04-11T00:35:07.047Z,99580.94
2019-04-11T00:37:35.650Z,99580.09
2019-04-11T00:40:06.285Z,99576.64
2019-04-11T00:42:34.699Z,99580.55
2019-04-11T00:45:03.382Z,99575.16
2019-04-11T00:47:33.154Z,99579.94
2019-04-11T00:50:04.019Z,99577.96
2019-04-11T00:52:33.595Z,99575.69
2019-04-11T00:55:03.002Z,99575.58
2019-04-11T00:57:32.559Z,99574.60
2019-04-11T01:00:01.262Z,99569.85
2019-04-11T01:02:30.021Z,99573.19
2019-04-11T01:04:59.269Z,99567.87
2019-04-11T01:07:27.710Z,99573.34
2019-04-11T01:09:56.875Z,99573.18
2019-04-11T01:12:25.246Z,99575.27
2019-04-11T01:14:53.671Z,99571.25
2019-04-11T01:17:23.256Z,99569.48
2019-04-11T01:19:51.746Z,99569.03
2019-04-11T01:22:20.405Z,99561.50
2019-04-11T01:24:48.819Z,99566.08
2019-04-11T01:27:18.098Z,99572.91
2019-04-11T01:29:47.392Z,99575.28
2019-04-11T01:32:16.082Z,99576.45
2019-04-11T01:34:44.694Z,99581.53
2019-04-11T01:37:13.074Z,99583.55
2019-04-11T01:39:49.644Z,99576.55
2019-04-11T01:42:19.391Z,99583.78
2019-04-11T01:44:49.057Z,99584.50
2019-04-11T01:47:20.294Z,99587.05
2019-04-11T01:49:48.933Z,99583.58
2019-04-11T01:52:18.214Z,99579.22
2019-04-11T01:54:46.615Z,99582.50
2019-04-11T01:57:15.860Z,99588.73
2019-04-11T01:59:44.316Z,99591.94
2019-04-11T02:02:26.464Z,99596.61
2019-04-11T02:04:56.604Z,99607.27
2019-04-11T02:07:25.054Z,99600.98
2019-04-11T02:09:54.644Z,99598.23
2019-04-11T02:12:23.249Z,99597.66
2019-04-11T02:14:52.177Z,99604.79
2019-04-11T02:17:20.631Z,99607.98
2019-04-11T02:19:50.278Z,99607.14
2019-04-11T02:22:38.179Z,99606.36
2019-04-11T02:25:16.439Z,99611.95
2019-04-11T02:27:44.939Z,99610.00
2019-04-11T02:30:14.454Z,99611.48
2019-04-11T02:32:45.475Z,99612.84
2019-04-11T02:35:15.264Z,99619.34
2019-04-11T02:37:44.399Z,99616.31
2019-04-11T02:40:15.434Z,99613.48
2019-04-11T02:42:45.479Z,99619.33
2019-04-11T02:45:27.323Z,99619.47
2019-04-11T02:47:48.230Z,99621.11
2019-04-11T02:50:17.122Z,99623.53
2019-04-11T02:52:47.228Z,99626.84
2019-04-11T02:55:17.124Z,99625.09
2019-04-11T02:57:46.639Z,99624.63
2019-04-11T03:00:18.112Z,99630.80
2019-04-11T03:02:50.246Z,99627.10
2019-04-11T03:05:18.552Z,99630.41
2019-04-11T03:07:47.743Z,99630.78
2019-04-11T03:10:16.511Z,99630.00
2019-04-11T03:12:46.455Z,99631.94
2019-04-11T03:15:31.661Z,99633.81
2019-04-11T03:17:48.626Z,99638.95
2019-04-11T03:20:26.456Z,99641.14
2019-04-11T03:22:54.158Z,99645.38
2019-04-11T03:25:17.833Z,99647.52
2019-04-11T03:27:47.507Z,99647.52
2019-04-11T03:30:23.447Z,99649.65
2019-04-11T03:33:43.610Z,99641.35
2019-04-11T03:36:07.536Z,99648.22
2019-04-11T03:38:13.327Z,99653.41
2019-04-11T03:40:36.209Z,99654.34
2019-04-11T03:43:04.056Z,99656.02
2019-04-11T03:45:38.123Z,99660.81
2019-04-11T03:48:05.998Z,99658.84
2019-04-11T03:50:23.332Z,99657.75
2019-04-11T03:52:49.729Z,99657.98
2019-04-11T03:55:21.694Z,99668.93
2019-04-11T03:57:51.848Z,99671.83
2019-04-11T04:00:22.147Z,99675.05
2019-04-11T04:02:52.581Z,99676.68
2019-04-11T04:05:21.753Z,99684.47
2019-04-11T04:07:50.590Z,99685.77
2019-04-11T04:10:21.261Z,99686.17
2019-04-11T04:12:51.485Z,99688.83
2019-04-11T04:15:44.278Z,99690.56
2019-04-11T04:18:14.265Z,99691.80
2019-04-11T04:20:57.716Z,99694.86
2019-04-11T04:23:29.432Z,99698.28
2019-04-11T04:26:01.046Z,99698.15
2019-04-11T04:28:29.582Z,99695.84
2019-04-11T04:31:00.230Z,99699.17
2019-04-11T04:33:29.493Z,99699.93
2019-04-11T04:36:00.248Z,99706.35
2019-04-11T04:38:29.615Z,99709.78
2019-04-11T04:41:12.596Z,99712.66
2019-04-11T04:43:31.672Z,99711.30
2019-04-11T04:46:18.491Z,99716.81
2019-04-11T04:48:32.354Z,99719.77
2019-04-11T04:51:07.303Z,99723.23
2019-04-11T04:53:33.058Z,99724.97
2019-04-11T04:56:02.668Z,99734.37
2019-04-11T04:58:31.659Z,99739.57
2019-04-11T05:01:01.390Z,99740.00
2019-04-11T05:03:32.073Z,99746.42
2019-04-11T05:06:03.363Z,99747.89
2019-04-11T05:08:32.558Z,99749.87
2019-04-11T05:11:02.368Z,99747.96
2019-04-11T05:13:32.217Z,99748.43
2019-04-11T05:16:08.509Z,99752.47
2019-04-11T05:18:32.032Z,99757.05
2019-04-11T05:21:01.090Z,99759.72
2019-04-11T05:23:29.849Z,99759.39
2019-04-11T05:25:59.977Z,99756.87
2019-04-11T05:28:29.720Z,99758.21
2019-04-11T05:30:58.410Z,99757.42
2019-04-11T05:33:27.393Z,99760.81
2019-04-11T05:35:56.455Z,99763.55
2019-04-11T05:38:25.342Z,99768.56
2019-04-11T05:40:54.575Z,99769.50
2019-04-11T05:43:28.136Z,99768.12
2019-04-11T05:45:55.125Z,99769.37
2019-04-11T05:48:31.061Z,99772.11
2019-04-11T05:51:00.535Z,99776.55
2019-04-11T05:53:32.839Z,99770.63
2019-04-11T05:56:01.590Z,99769.72
2019-04-11T05:58:32.489Z,99772.42
2019-04-11T06:01:20.198Z,99769.12
2019-04-11T06:03:50.448Z,99775.63
2019-04-11T06:06:26.873Z,99771.83
2019-04-11T06:09:00.625Z,99770.46
2019-04-11T06:11:48.171Z,99769.91
2019-04-11T06:14:29.756Z,99773.17
2019-04-11T06:17:00.874Z,99776.20
2019-04-11T06:19:37.626Z,99778.45
2019-04-11T06:22:08.698Z,99778.73
2019-04-11T06:24:56.999Z,99782.38
2019-04-11T06:27:30.481Z,99785.46
2019-04-11T06:30:17.917Z,99778.76
2019-04-11T06:33:04.635Z,99789.30
2019-04-11T06:35:44.201Z,99788.05
2019-04-11T06:38:30.473Z,99784.31
2019-04-11T06:41:00.580Z,99787.98
2019-04-11T06:43:43.109Z,99784.11
2019-04-11T06:46:18.842Z,99783.64
2019-04-11T06:48:56.080Z,99779.49
2019-04-11T06:51:26.198Z,99787.49
2019-04-11T06:54:12.715Z,99785.90
2019-04-11T06:56:45.782Z,99785.73
2019-04-11T06:59:16.408Z,99786.88
2019-04-11T07:01:47.491Z,99782.14
2019-04-11T07:04:23.711Z,99795.59
2019-04-11T07:06:53.846Z,99789.61
2019-04-11T07:09:33.016Z,99785.86
2019-04-11T07:12:09.775Z,99795.43
2019-04-11T07:14:48.614Z,99793.70
2019-04-11T07:17:34.585Z,99792.30
2019-04-11T07:20:20.782Z,99795.20
2019-04-11T07:23:07.906Z,99799.77
2019-04-11T07:25:56.193Z,99799.41
2019-04-11T07:28:32.198Z,99800.72
2019-04-11T07:31:21.568Z,99798.48
2019-04-11T07:33:51.968Z,99797.38
2019-04-11T07:36:38.439Z,99800.48
2019-04-11T07:39:12.911Z,99799.20
2019-04-11T07:41:43.904Z,99801.38
2019-04-11T07:44:21.805Z,99802.66
2019-04-11T07:46:58.217Z,99801.16
2019-04-11T07:49:37.787Z,99805.59
2019-04-11T07:52:07.438Z,99808.34
2019-04-11T07:54:36.955Z,99802.42
2019-04-11T07:57:10.472Z,99800.84
2019-04-11T07:59:43.112Z,99798.39
2019-04-11T08:02:31.408Z,99803.00
2019-04-11T08:05:19.093Z,99807.80
2019-04-11T08:08:06.833Z,99805.11
2019-04-11T08:10:43.690Z,99803.47
2019-04-11T08:13:20.691Z,99797.73
2019-04-11T08:15:50.810Z,99801.50
2019-04-11T08:18:24.342Z,99808.61
2019-04-11T08:20:57.452Z,99807.80
2019-04-11T08:23:26.313Z,99811.41
2019-04-11T08:26:06.133Z,99814.88
2019-04-11T08:28:35.594Z,99811.20
2019-04-11T08:31:11.435Z,99823.77
2019-04-11T08:33:40.497Z,99822.00
2019-04-11T08:36:13.777Z,99829.71
2019-04-11T08:38:42.627Z,99821.13
2019-04-11T08:41:27.903Z,99823.49
2019-04-11T08:43:56.625Z,99820.17
2019-04-11T08:46:33.044Z,99814.12
2019-04-11T08:49:19.456Z,99821.31
2019-04-11T08:51:47.810Z,99815.58
2019-04-11T08:54:29.860Z,99823.83
2019-04-11T08:56:59.112Z,99816.56
2019-04-11T08:59:44.259Z,99822.91
2019-04-11T09:02:12.814Z,99814.70
2019-04-11T09:05:07.064Z,99828.27
2019-04-11T09:07:31.775Z,99829.36
2019-04-11T09:10:18.355Z,99821.24
2019-04-11T09:12:48.936Z,99831.24
2019-04-11T09:15:21.616Z,99817.52
2019-04-11T09:17:58.689Z,99819.36
2019-04-11T09:20:40.206Z,99819.89
2019-04-11T09:23:11.318Z,99824.82
2019-04-11T09:25:41.376Z,99816.17
2019-04-11T09:28:11.437Z,99814.09
2019-04-11T09:30:59.384Z,99829.24
2019-04-11T09:33:46.998Z,99817.53
2019-04-11T09:36:33.120Z,99820.34
2019-04-11T09:39:19.690Z,99824.91
2019-04-11T09:41:56.610Z,99826.31
2019-04-11T09:44:26.742Z,99825.94
2019-04-11T09:46:57.140Z,99815.42
2019-04-11T09:49:27.208Z,99811.98
2019-04-11T09:52:04.354Z,99822.10
2019-04-11T09:54:47.319Z,99820.77
2019-04-11T09:57:18.597Z,99830.46
2019-04-11T09:59:49.714Z,99830.48
2019-04-11T10:02:28.835Z,99847.56
2019-04-11T10:05:01.416Z,99827.29
2019-04-11T10:07:37.611Z,99826.92
2019-04-11T10:10:10.895Z,99840.47
2019-04-11T10:12:40.934Z,99846.80
2019-04-11T10:15:11.314Z,99821.55
2019-04-11T10:17:42.490Z,99842.45
2019-04-11T10:20:12.822Z,99830.22
2019-04-11T10:22:43.931Z,99823.31
2019-04-11T10:25:14.869Z,99827.77
2019-04-11T10:27:44.925Z,99845.10
2019-04-11T10:30:22.464Z,99834.05
2019-04-11T10:33:09.449Z,99843.58
2019-04-11T10:35:48.832Z,99828.77
2019-04-11T10:38:18.877Z,99841.95
2019-04-11T10:40:50.297Z,99824.63
2019-04-11T10:43:18.941Z,99821.11
2019-04-11T10:45:51.653Z,99822.35
2019-04-11T10:48:33.503Z,99824.75
2019-04-11T10:50:53.483Z,99809.86
2019-04-11T10:53:22.871Z,99818.16
2019-04-11T10:56:02.233Z,99816.91
2019-04-11T10:58:33.110Z,99806.89
2019-04-11T11:01:03.960Z,99806.52
2019-04-11T11:03:40.080Z,99813.48
2019-04-11T11:06:11.288Z,99807.47
2019-04-11T11:08:57.717Z,99820.02
2019-04-11T11:11:28.347Z,99814.48
2019-04-11T11:14:14.296Z,99816.23
2019-04-11T11:17:00.554Z,99813.48
2019-04-11T11:19:59.290Z,99793.09
2019-04-11T11:22:34.930Z,99798.45
2019-04-11T11:25:23.229Z,99804.20
2019-04-11T11:27:52.369Z,99800.76
2019-04-11T11:30:23.106Z,99800.76
2019-04-11T11:32:51.787Z,99805.56
2019-04-11T11:35:40.475Z,99797.64
2019-04-11T11:38:11.326Z,99806.88
2019-04-11T11:40:43.141Z,99787.11
2019-04-11T11:43:13.319Z,99797.64
2019-04-11T11:46:03.009Z,99796.70
2019-04-11T11:48:39.696Z,99801.97
2019-04-11T11:51:13.063Z,99798.39
2019-04-11T11:53:55.471Z,99799.68
2019-04-11T11:56:24.263Z,99790.91
2019-04-11T11:59:03.128Z,99790.53
2019-04-11T12:01:31.619Z,99792.83
2019-04-11T12:04:17.603Z,99787.56
2019-04-11T12:06:48.948Z,99803.38
2019-04-11T12:09:34.251Z,99784.91
2019-04-11T12:12:04.378Z,99794.61
2019-04-11T12:14:43.457Z,99784.94
2019-04-11T12:17:14.585Z,99783.19
2019-04-11T12:19:51.336Z,99767.80
2019-04-11T12:22:16.035Z,99799.06
2019-04-11T12:24:46.260Z,99784.00
2019-04-11T12:27:16.537Z,99781.83
2019-04-11T12:29:48.999Z,99783.20
2019-04-11T12:32:24.292Z,99774.87
2019-04-11T12:34:54.297Z,99781.89
2019-04-11T12:37:25.281Z,99780.56
2019-04-11T12:40:11.802Z,99774.38
2019-04-11T12:42:41.266Z,99775.22
2019-04-11T12:45:20.612Z,99774.77
2019-04-11T12:47:49.082Z,99761.16
2019-04-11T12:50:29.090Z,99777.44
2019-04-11T12:53:02.091Z,99760.28
2019-04-11T12:55:50.373Z,99756.80
2019-04-11T12:58:22.856Z,99750.21
2019-04-11T13:01:07.941Z,99756.81
2019-04-11T13:03:54.122Z,99759.00
2019-04-11T13:06:39.490Z,99753.28
2019-04-11T13:09:23.222Z,99746.25
2019-04-11T13:12:09.685Z,99744.05
2019-04-11T13:14:54.871Z,99739.69
2019-04-11T13:17:27.766Z,99738.38
2019-04-11T13:20:04.896Z,99749.80
2019-04-11T13:22:31.800Z,99743.66
2019-04-11T13:25:17.764Z,99744.98
2019-04-11T13:27:47.797Z,99741.47
2019-04-11T13:30:33.041Z,99743.66
2019-04-11T13:33:01.706Z,99741.91
2019-04-11T13:35:31.807Z,99729.99
2019-04-11T13:38:07.729Z,99736.17
2019-04-11T13:40:40.192Z,99744.55
2019-04-11T13:43:10.231Z,99740.55
2019-04-11T13:45:50.263Z,99736.59
2019-04-11T13:48:36.361Z,99743.65
2019-04-11T13:51:12.165Z,99728.68
2019-04-11T13:53:44.899Z,99728.23
2019-04-11T13:56:13.562Z,99726.05
2019-04-11T13:58:55.725Z,99733.09
2019-04-11T14:01:24.120Z,99723.38
2019-04-11T14:03:59.878Z,99725.16
2019-04-11T14:06:28.469Z,99726.91
2019-04-11T14:09:01.992Z,99717.22
2019-04-11T14:11:31.606Z,99711.05
2019-04-11T14:14:03.050Z,99710.59
2019-04-11T14:16:32.521Z,99707.05
2019-04-11T14:19:11.686Z,99715.44
2019-04-11T14:21:38.236Z,99714.13
2019-04-11T14:24:13.764Z,99704.44
2019-04-11T14:26:43.817Z,99704.87
2019-04-11T14:29:16.746Z,99703.98
2019-04-11T14:31:50.968Z,99710.16
2019-04-11T14:34:33.592Z,99712.37
2019-04-11T14:37:03.732Z,99711.02
2019-04-11T14:39:36.162Z,99710.16
2019-04-11T14:42:24.472Z,99711.94
2019-04-11T14:44:54.622Z,99710.61
2019-04-11T14:47:24.659Z,99705.36
2019-04-11T14:49:54.726Z,99704.47
2019-04-11T14:52:41.463Z,99716.76
2019-04-11T14:55:09.854Z,99705.33
2019-04-11T14:57:42.801Z,99705.33
2019-04-11T15:00:18.752Z,99707.97
2019-04-11T15:02:48.785Z,99702.69
2019-04-11T15:05:24.847Z,99710.17
2019-04-11T15:07:53.315Z,99708.42
2019-04-11T15:10:23.357Z,99708.40
2019-04-11T15:12:53.141Z,99707.08
2019-04-11T15:15:29.069Z,99698.72
2019-04-11T15:17:59.142Z,99700.04
2019-04-11T15:20:54.913Z,99701.36
2019-04-11T15:23:17.525Z,99699.15
2019-04-11T15:26:07.896Z,99709.30
2019-04-11T15:28:47.847Z,99712.83
2019-04-11T15:31:20.864Z,99703.58
2019-04-11T15:34:03.058Z,99700.50
2019-04-11T15:36:31.527Z,99699.58
2019-04-11T15:39:01.562Z,99710.62
2019-04-11T15:41:31.665Z,99717.22
2019-04-11T15:44:18.073Z,99705.33
2019-04-11T15:46:47.896Z,99707.97
2019-04-11T15:49:34.437Z,99712.33
2019-04-11T15:52:06.806Z,99722.72
2019-04-11T15:54:39.457Z,99718.50
2019-04-11T15:57:12.578Z,99713.30
2019-04-11T15:59:50.044Z,99711.81
2019-04-11T16:02:23.072Z,99718.52
2019-04-11T16:05:02.881Z,99723.83
2019-04-11T16:07:49.462Z,99726.92
2019-04-11T16:10:19.433Z,99725.61
2019-04-11T16:12:55.429Z,99726.04
2019-04-11T16:15:25.711Z,99728.70
2019-04-11T16:18:15.721Z,99725.60
2019-04-11T16:20:42.214Z,99730.02
2019-04-11T16:23:27.388Z,99730.01
2019-04-11T16:25:55.785Z,99723.40
2019-04-11T16:28:31.493Z,99719.87
2019-04-11T16:30:59.916Z,99726.87
2019-04-11T16:33:32.528Z,99736.57
2019-04-11T16:36:02.919Z,99731.25
2019-04-11T16:38:33.213Z,99718.05
2019-04-11T16:41:23.780Z,99733.04
2019-04-11T16:43:54.648Z,99727.73
2019-04-11T16:46:41.303Z,99727.73
2019-04-11T16:49:09.703Z,99726.83
2019-04-11T16:51:38.106Z,99738.25
2019-04-11T16:54:09.577Z,99734.73
2019-04-11T16:56:36.648Z,99737.36
2019-04-11T16:59:05.037Z,99736.92
2019-04-11T17:01:34.095Z,99733.84
2019-04-11T17:04:02.486Z,99736.05
2019-04-11T17:06:35.671Z,99740.41
2019-04-11T17:09:07.572Z,99736.44
2019-04-11T17:11:35.973Z,99734.25
2019-04-11T17:14:05.215Z,99735.12
2019-04-11T17:16:33.641Z,99734.68
2019-04-11T17:19:05.178Z,99738.19
2019-04-11T17:21:42.711Z,99739.47
2019-04-11T17:24:02.302Z,99744.30
2019-04-11T17:26:30.692Z,99744.22
2019-04-11T17:28:59.087Z,99749.02
2019-04-11T17:31:27.934Z,99749.44
2019-04-11T17:33:56.716Z,99745.45
2019-04-11T17:36:26.445Z,99750.22
2019-04-11T17:38:54.876Z,99758.16
2019-04-11T17:41:23.273Z,99766.03
2019-04-11T17:43:51.963Z,99753.70
2019-04-11T17:46:20.368Z,99751.92
2019-04-11T17:48:50.430Z,99761.98
2019-04-11T17:51:18.930Z,99756.23
2019-04-11T17:53:47.350Z,99764.16
2019-04-11T17:56:15.741Z,99771.17
2019-04-11T17:58:44.157Z,99765.41
2019-04-11T18:01:12.621Z,99766.23
2019-04-11T18:03:42.108Z,99772.30
2019-04-11T18:06:10.992Z,99775.35
2019-04-11T18:08:39.383Z,99777.08
2019-04-11T18:11:07.794Z,99780.94
2019-04-11T18:13:36.181Z,99783.98
2019-04-11T18:16:04.580Z,99788.75
2019-04-11T18:18:35.237Z,99786.94
2019-04-11T18:21:07.106Z,99793.42
2019-04-11T18:23:35.852Z,99794.67
2019-04-11T18:26:04.571Z,99797.60
2019-04-11T18:28:32.964Z,99799.16
2019-04-11T18:31:01.355Z,99803.79
2019-04-11T18:33:31.704Z,99807.55
2019-04-11T18:36:02.323Z,99812.52
2019-04-11T18:38:32.004Z,99812.28
2019-04-11T18:41:01.076Z,99808.44
2019-04-11T18:43:29.463Z,99813.45
2019-04-11T18:45:57.860Z,99824.14
2019-04-11T18:48:26.275Z,99828.86
2019-04-11T18:50:54.666Z,99830.50
2019-04-11T18:53:23.061Z,99826.53
2019-04-11T18:55:51.472Z,99835.72
2019-04-11T18:58:19.862Z,99840.08
2019-04-11T19:00:48.598Z,99842.58
2019-04-11T19:03:17.676Z,99846.06
2019-04-11T19:05:46.091Z,99838.58
2019-04-11T19:08:14.558Z,99846.90
2019-04-11T19:10:45.765Z,99849.91
2019-04-11T19:13:16.691Z,99848.56
2019-04-11T19:15:45.495Z,99848.53
2019-04-11T19:18:16.044Z,99852.95
2019-04-11T19:20:43.649Z,99850.70
2019-04-11T19:23:15.015Z,99853.68
2019-04-11T19:25:45.163Z,99858.00
2019-04-11T19:28:13.658Z,99859.73
2019-04-11T19:30:42.458Z,99858.70
2019-04-11T19:33:11.126Z,99862.53
2019-04-11T19:35:41.730Z,99862.95
2019-04-11T19:38:12.244Z,99866.40
2019-04-11T19:40:41.283Z,99869.33
2019-04-11T19:43:09.690Z,99871.44
2019-04-11T19:45:38.091Z,99872.16
2019-04-11T19:48:06.515Z,99874.11
2019-04-11T19:50:34.911Z,99872.05
2019-04-11T19:53:03.523Z,99870.66
2019-04-11T19:55:48.981Z,99876.32
2019-04-11T19:58:19.287Z,99874.63
2019-04-11T20:00:51.140Z,99884.08
2019-04-11T20:03:18.327Z,99892.20
2019-04-11T20:05:46.778Z,99895.27
2019-04-11T20:08:15.123Z,99899.47
2019-04-11T20:10:43.534Z,99890.70
2019-04-11T20:13:12.901Z,99890.62
2019-04-11T20:15:42.412Z,99895.01
2019-04-11T20:18:11.494Z,99897.17
2019-04-11T20:20:40.212Z,99902.91
2019-04-11T20:23:11.029Z,99902.05
2019-04-11T20:25:38.766Z,99897.59
2019-04-11T20:28:07.155Z,99893.58
2019-04-11T20:30:35.555Z,99896.33
2019-04-11T20:33:04.251Z,99900.59
2019-04-11T20:35:32.648Z,99895.59
2019-04-11T20:38:01.044Z,99900.59
2019-04-11T20:40:29.476Z,99900.01
2019-04-11T20:42:58.327Z,99901.14
2019-04-11T20:45:28.774Z,99906.14
2019-04-11T20:47:59.814Z,99908.17
2019-04-11T20:50:28.237Z,99904.97
2019-04-11T20:52:59.267Z,99901.69
2019-04-11T20:55:26.794Z,99899.64
2019-04-11T20:57:55.182Z,99902.03
2019-04-11T21:00:23.581Z,99906.23
2019-04-11T21:02:51.995Z,99910.74
2019-04-11T21:05:20.386Z,99904.46
2019-04-11T21:07:48.778Z,99911.86
2019-04-11T21:10:17.187Z,99906.23
2019-04-11T21:12:45.880Z,99917.50
2019-04-11T21:15:14.345Z,99912.22
2019-04-11T21:17:42.769Z,99915.23
2019-04-11T21:20:11.230Z,99913.88
2019-04-11T21:22:39.627Z,99907.63
2019-04-11T21:25:08.113Z,99912.59
2019-04-11T21:27:36.513Z,99913.04
2019-04-11T21:30:06.815Z,99920.25
2019-04-11T21:32:35.235Z,99913.48
2019-04-11T21:35:04.471Z,99919.92
2019-04-11T21:37:32.861Z,99915.21
2019-04-11T21:40:01.279Z,99914.06
2019-04-11T21:42:29.672Z,99907.63
2019-04-11T21:44:58.085Z,99917.83
2019-04-11T21:47:26.489Z,99911.00
2019-04-11T21:49:54.870Z,99910.73
2019-04-11T21:52:23.289Z,99914.80
2019-04-11T21:54:51.690Z,99914.53
2019-04-11T21:57:20.093Z,99917.89
2019-04-11T21:59:51.245Z,99915.92
2019-04-11T22:02:18.870Z,99914.84
2019-04-11T22:04:47.261Z,99914.23
2019-04-11T22:07:15.675Z,99914.97
2019-04-11T22:09:44.069Z,99918.71
2019-04-11T22:12:12.499Z,99918.95
2019-04-11T22:14:41.915Z,99923.15
2019-04-11T22:17:15.128Z,99924.63
2019-04-11T22:19:45.157Z,99915.65
2019-04-11T22:22:11.257Z,99922.36
2019-04-11T22:24:39.650Z,99918.20
2019-04-11T22:27:08.039Z,99921.08
2019-04-11T22:29:36.460Z,99917.34
2019-04-11T22:32:04.930Z,99919.81
2019-04-11T22:34:34.969Z,99927.06
2019-04-11T22:37:03.796Z,99925.41
2019-04-11T22:39:32.189Z,99928.52
2019-04-11T22:42:00.909Z,99933.13
2019-04-11T22:44:29.327Z,99929.47
2019-04-11T22:46:57.724Z,99929.36
2019-04-11T22:49:26.118Z,99934.38
2019-04-11T22:51:54.546Z,99933.20
2019-04-11T22:54:22.948Z,99933.28
2019-04-11T22:56:51.344Z,99937.73
2019-04-11T22:59:19.762Z,99941.77
2019-04-11T23:01:48.825Z,99940.09
2019-04-11T23:04:17.670Z,99940.68
2019-04-11T23:06:47.150Z,99936.89
2019-04-11T23:09:16.595Z,99938.78
2019-04-11T23:11:46.418Z,99945.53
2019-04-11T23:14:15.948Z,99943.64
2019-04-11T23:16:44.993Z,99947.28
2019-04-11T23:19:14.438Z,99947.53
2019-04-11T23:21:42.806Z,99951.23
2019-04-11T23:24:12.122Z,99951.88
2019-04-11T23:26:40.604Z,99956.02
2019-04-11T23:29:09.014Z,99962.30
2019-04-11T23:31:37.426Z,99964.30
2019-04-11T23:34:05.823Z,99969.37
2019-04-11T23:36:34.220Z,99966.56
2019-04-11T23:39:02.970Z,99966.49
2019-04-11T23:41:31.367Z,99965.06
2019-04-11T23:43:59.761Z,99965.75
2019-04-11T23:46:28.190Z,99978.16
2019-04-11T23:48:56.590Z,99975.65
2019-04-11T23:51:26.292Z,99978.05
2019-04-11T23:53:59.029Z,99980.73
2019-04-11T23:56:25.292Z,99980.88
2019-04-11T23:58:53.689Z,99978.50
